Terminal Aerodrome Forecast
Issued by NWS

Home | Current Version | Previous Version | Text Only | Print | Product List | Glossary Off
Versions: 1 2 3 4 5 6 7 8 9 10 11 12 13 14 15

976
FTUS43 KICT 131731 AAC
TAFRSL
TAF AMD
KRSL 131731Z 1318/1418 18012KT P6SM OVC025
      TEMPO 1318/1322 SCT025 BKN050
     FM132200 17008KT P6SM SCT050 BKN120
     FM140200 17007KT P6SM BKN200
     FM140900 18005KT P6SM SCT015 BKN200
     FM141600 18012KT P6SM SCT030 BKN200=

USA.gov is the U.S. government's official web portal to all federal, state and local government web resources and services.